createdAt,value
2023-05-13T14:39:00.635Z,24.27
2023-05-13T14:42:55.765Z,23.30
2023-05-13T14:46:22.880Z,22.49
2023-05-13T14:54:27.424Z,21.39
2023-05-13T14:58:08.731Z,20.84
2023-05-13T15:02:07.590Z,20.33
2023-05-13T15:06:03.337Z,19.92
2023-05-13T15:09:29.571Z,19.66
2023-05-13T15:12:55.460Z,19.58
2023-05-13T15:16:19.128Z,19.35
2023-05-13T15:19:44.452Z,19.08
2023-05-13T15:23:14.413Z,18.77
2023-05-13T15:26:41.218Z,18.46
2023-05-13T15:30:12.030Z,18.40
2023-05-13T15:33:33.360Z,18.49
2023-05-13T15:36:56.960Z,18.48
2023-05-13T15:40:23.653Z,18.50
2023-05-13T15:43:45.552Z,18.77
2023-05-13T15:47:06.711Z,19.12
2023-05-13T15:50:27.758Z,19.27
2023-05-13T15:53:48.700Z,19.70
2023-05-13T15:57:50.046Z,20.19
2023-05-13T16:02:43.642Z,19.79
2023-05-13T16:06:41.277Z,19.40
2023-05-13T16:10:23.872Z,19.12
2023-05-13T16:24:15.652Z,18.87
2023-05-13T16:29:25.339Z,18.73
2023-05-13T16:37:19.354Z,18.51
2023-05-13T16:42:13.930Z,18.46
2023-05-13T16:52:55.391Z,18.73
2023-05-13T16:56:57.286Z,18.70
2023-05-13T17:05:32.493Z,18.61
2023-05-13T17:09:23.456Z,18.66
2023-05-13T17:13:31.187Z,18.74
2023-05-13T17:23:39.813Z,18.76
2023-05-13T17:26:51.072Z,18.81
2023-05-13T17:35:40.248Z,19.03
2023-05-13T17:43:23.590Z,19.39
2023-05-13T17:46:50.583Z,19.56
2023-05-13T17:50:40.622Z,19.49
2023-05-13T17:54:04.709Z,19.34
2023-05-13T17:57:49.886Z,19.21
2023-05-13T18:01:52.528Z,19.09
2023-05-13T18:05:13.652Z,19.03
2023-05-13T18:08:50.668Z,18.94
2023-05-13T18:15:58.254Z,18.81
2023-05-13T18:19:22.722Z,18.81
2023-05-13T18:22:52.065Z,18.84
2023-05-13T18:26:26.750Z,18.88
2023-05-13T18:29:47.664Z,18.82
2023-05-13T18:33:08.699Z,18.80
2023-05-13T18:36:30.255Z,18.75
2023-05-13T18:39:51.236Z,18.77
2023-05-13T18:43:15.349Z,18.81
2023-05-13T18:46:44.667Z,18.88
2023-05-13T18:50:12.419Z,19.08
2023-05-13T18:53:45.197Z,19.30
2023-05-13T18:57:12.830Z,19.50
2023-05-13T19:00:38.048Z,19.59
2023-05-13T19:04:02.103Z,19.72
2023-05-13T19:07:29.542Z,19.90
2023-05-13T19:11:27.527Z,20.18
2023-05-13T19:14:46.696Z,20.53
2023-05-13T19:18:10.727Z,20.98
